Rejestracja

Wszystkie dane podawane są w czasie UTC za wyjątkiem miejsc gdzie jest jednoznacznie podane, że jest inaczej. Dane podawane w serwisie mają charakter informacyjny!!!
Informacje w sprawie dostępu do serwisu pod numerem tel. +48 261-828-559 lub +48 261-828-138
Informacja dla żołnierzy i pracowników wojska: Prosimy o niezwłoczną zmianę adresu e-mail w profilu użytkownika na pocztę w domenie @ron.mil.pl
Brak służbowego adresu e-mail skutkuje usunięciem konta.
W związku z awarią systemu informatycznego zabezpieczenie meteorologiczne do chwili usunięcia niesprawności realizowane będzie w ograniczonym zakresie.

Aktualna Pogoda
 
Pogoda w Polsce
4°C Szczecin -0°C Suwałki 0°C Warszawa 1°C Poznan
1°C Opole -0°C Kraków -0°C Rzeszów
Więcej miast w Polsce

Pogoda w Europie
4°C Berlin 2°C Paryz 3°C Bruksela -3°C Oslo
3°C Praga 4°C Zagrzeb
Więcej miast w Europie

Metary wojskowe test
METAR EPBC 291500Z 31002KT 9999 BKN038 00/M03 Q1022=
METAR EPCE 291730Z 00000KT 9000 OVC041 M01/M01 Q1023 RMK M007 098 8/8=
METAR EPDA 291730Z VRB01KT 9999 BKN033 BKN071 02/01 Q1024 RMK 024 091 7/5=
METAR EPDE 291730Z 29004KT 8000 SCT030 OVC060 M00/M01 Q1022 RMK M003 092 8/3=
METAR EPIR 291730Z AUTO 35004KT VV042 01/M01 Q1023 RMK 011 087 ///=
METAR EPKS 291730Z 33003KT 8000 BKN040 01/01 Q1023 RMK 012 100 7/7=
METAR EPLK 291730Z VRB02KT 9999 BKN030 M00/M00 Q1022 RMK M001 100 7/7=
METAR EPLY 291700Z VRB02KT 9999 BKN035 01/M01 Q1022 RMK 010 090 7/7=
METAR EPMB 291730Z 12004KT 9999 SCT015 BKN065 00/M01 Q1023 RMK 001 089 6/4=
METAR EPMI 291730Z 11003KT 9999 OVC060 01/01 Q1024 RMK 008 100 8/8=
METAR EPMM 291730Z 31005KT 9999 SCT013 OVC038 M00/M02 Q1021 RMK M004 087 8/4=
METAR EPOK 291730Z 30003KT 9999 BKN049 01/M00 Q1023 RMK 010 093 7/7=
METAR EPPR 291700Z 30002KT 9999 SCT030 BKN055 M01/M02 Q1024 RMK M008 088 6/3=
METAR EPPW 291730Z 03004KT 9999 OVC045 02/01 Q1023 RMK 015 095 7/7=
METAR EPSN 291730Z VRB02KT 9999 BKN040 02/02 Q1023 RMK 024 100 7/7=
METAR EPTM 291700Z 35004KT 8000 SCT017 OVC040 M01/M03 Q1022 RMK M009 085 8/4=


 

Prawa autorskie©2007 SSH SZ RP. Wszelkie prawa zastrzeżone.